Time;durP1;ratioP1;P1;durP2;ratioP2;P2;SDS_P1;SDS_P2;PMS_P1;PMS_P2;Temp;Humidity;BMP_temperature;BMP_pressure;BME280_temperature;BME280_humidity;BME280_pressure;Samples;Min_cycle;Max_cycle;Signal;HPM_P1;HPM_P2
2023/04/13 00:00:09;;;;;;;10.25;9.25;;;;;;;;;;2054489;28;20449;-62
2023/04/13 00:01:31;;;;;;;11.88;10.15;;;;;;;;;;2052991;28;20031;-62
2023/04/13 00:02:54;;;;;;;12.68;9.55;;;;;;;;;;2054753;28;20431;-61
2023/04/13 00:04:13;;;;;;;10.82;9.73;;;;;;;;;;2052568;28;20973;-61
2023/04/13 00:05:33;;;;;;;11.55;10.02;;;;;;;;;;2053604;28;20023;-61
2023/04/13 00:06:52;;;;;;;11.00;9.93;;;;;;;;;;2054122;28;20019;-61
2023/04/13 00:08:10;;;;;;;10.70;9.70;;;;;;;;;;2055344;28;20457;-61
2023/04/13 00:09:30;;;;;;;11.40;9.68;;;;;;;;;;2054046;28;20031;-61
2023/04/13 00:10:49;;;;;;;10.65;9.70;;;;;;;;;;2053790;28;20107;-62
2023/04/13 00:12:09;;;;;;;10.43;9.40;;;;;;;;;;2054156;28;20112;-61
2023/04/13 00:13:29;;;;;;;10.60;9.60;;;;;;;;;;2056493;28;20114;-61
2023/04/13 00:14:49;;;;;;;13.43;10.25;;;;;;;;;;2054840;28;20031;-62
2023/04/13 00:16:09;;;;;;;10.32;9.25;;;;;;;;;;2052918;28;20039;-62
2023/04/13 00:17:28;;;;;;;11.25;9.30;;;;;;;;;;2054289;28;20032;-61
2023/04/13 00:18:49;;;;;;;12.23;10.00;;;;;;;;;;2054555;28;20034;-61
2023/04/13 00:20:12;;;;;;;11.80;10.30;;;;;;;;;;2054644;28;20109;-61
2023/04/13 00:21:32;;;;;;;;;;;;;;;;;;2054350;28;20032;-61
2023/04/13 00:22:51;;;;;;;12.32;9.55;;;;;;;;;;2052439;28;19910;-61
2023/04/13 00:24:10;;;;;;;10.05;9.20;;;;;;;;;;2054761;28;20027;-61
2023/04/13 00:25:29;;;;;;;10.95;9.32;;;;;;;;;;2053609;28;20027;-62
2023/04/13 00:26:48;;;;;;;10.48;9.50;;;;;;;;;;2054925;28;20061;-61
2023/04/13 00:28:07;;;;;;;11.02;9.93;;;;;;;;;;2053806;28;21448;-61
2023/04/13 00:29:27;;;;;;;10.93;9.73;;;;;;;;;;2053960;28;20500;-60
2023/04/13 00:30:45;;;;;;;10.77;9.68;;;;;;;;;;2051702;28;20472;-62
2023/04/13 00:32:04;;;;;;;13.07;10.35;;;;;;;;;;2054349;28;20105;-64
2023/04/13 00:33:23;;;;;;;10.63;9.60;;;;;;;;;;2054617;28;20035;-60
2023/04/13 00:34:44;;;;;;;9.82;8.80;;;;;;;;;;2054961;28;20030;-62
2023/04/13 00:36:03;;;;;;;13.10;10.73;;;;;;;;;;2054680;28;20027;-60
2023/04/13 00:37:22;;;;;;;13.43;9.38;;;;;;;;;;2056630;28;20400;-60
2023/04/13 00:38:43;;;;;;;10.45;9.45;;;;;;;;;;2055197;28;21021;-61
2023/04/13 00:40:04;;;;;;;13.85;10.05;;;;;;;;;;2050071;28;20105;-60
2023/04/13 00:41:24;;;;;;;10.38;9.32;;;;;;;;;;2053145;28;20110;-61
2023/04/13 00:42:47;;;;;;;10.90;9.90;;;;;;;;;;2054310;28;20389;-61
2023/04/13 00:44:07;;;;;;;10.63;9.27;;;;;;;;;;2054255;28;20516;-60
2023/04/13 00:45:27;;;;;;;12.23;10.55;;;;;;;;;;2051116;28;20039;-60
2023/04/13 00:46:46;;;;;;;10.90;9.32;;;;;;;;;;2052179;28;20023;-61
2023/04/13 00:48:08;;;;;;;11.73;9.43;;;;;;;;;;2051255;28;20396;-61
2023/04/13 00:49:28;;;;;;;12.10;9.25;;;;;;;;;;2053405;28;20050;-60
2023/04/13 00:50:47;;;;;;;10.38;9.38;;;;;;;;;;2051519;28;20034;-60
2023/04/13 00:52:08;;;;;;;10.48;9.00;;;;;;;;;;2053419;28;20028;-61
2023/04/13 00:53:28;;;;;;;10.50;9.52;;;;;;;;;;2052208;28;20496;-61
2023/04/13 00:54:48;;;;;;;10.75;9.07;;;;;;;;;;2054831;28;20035;-61
2023/04/13 00:56:08;;;;;;;10.85;9.02;;;;;;;;;;2054549;28;20039;-61
2023/04/13 00:57:27;;;;;;;10.60;9.70;;;;;;;;;;2054900;28;20034;-60
2023/04/13 00:58:46;;;;;;;11.27;9.95;;;;;;;;;;2054151;28;20109;-65
2023/04/13 01:00:08;;;;;;;10.43;9.15;;;;;;;;;;2053818;28;20035;-62
2023/04/13 01:01:29;;;;;;;10.50;9.45;;;;;;;;;;2050098;28;20030;-64
2023/04/13 01:02:49;;;;;;;10.63;9.68;;;;;;;;;;2052214;28;20428;-61
2023/04/13 01:04:08;;;;;;;13.15;10.00;;;;;;;;;;2054559;28;20027;-61
2023/04/13 01:05:30;;;;;;;10.32;9.32;;;;;;;;;;2053802;28;20616;-60
2023/04/13 01:07:04;;;;;;;10.85;9.73;;;;;;;;;;2053260;28;20106;-60
2023/04/13 01:08:24;;;;;;;9.88;9.07;;;;;;;;;;2051559;28;20046;-61
2023/04/13 01:09:48;;;;;;;9.77;8.90;;;;;;;;;;2053321;28;20031;-61
2023/04/13 01:11:12;;;;;;;10.50;9.60;;;;;;;;;;2049835;28;20039;-60
2023/04/13 01:12:35;;;;;;;12.40;9.63;;;;;;;;;;2054738;28;20038;-61
2023/04/13 01:14:11;;;;;;;9.90;9.00;;;;;;;;;;2049868;28;20043;-61
2023/04/13 01:15:32;;;;;;;10.30;9.25;;;;;;;;;;2053175;28;20114;-60
2023/04/13 01:16:55;;;;;;;13.30;9.02;;;;;;;;;;2052651;28;20039;-61
2023/04/13 01:18:15;;;;;;;10.93;9.68;;;;;;;;;;2060959;28;20027;-60
2023/04/13 01:19:34;;;;;;;13.80;9.68;;;;;;;;;;2056993;28;20125;-61
2023/04/13 01:20:53;;;;;;;9.60;8.70;;;;;;;;;;2051834;28;20057;-60
2023/04/13 01:22:13;;;;;;;10.68;9.60;;;;;;;;;;2053745;28;21043;-61
2023/04/13 01:23:51;;;;;;;9.88;8.95;;;;;;;;;;2050023;28;20023;-61
2023/04/13 01:25:21;;;;;;;9.25;8.32;;;;;;;;;;2053081;28;20027;-61
2023/04/13 01:26:56;;;;;;;13.27;9.00;;;;;;;;;;2052105;28;20106;-61
2023/04/13 01:28:15;;;;;;;8.75;8.00;;;;;;;;;;2053588;28;20397;-61
2023/04/13 01:29:35;;;;;;;10.30;9.10;;;;;;;;;;2047181;28;20026;-62
2023/04/13 01:30:56;;;;;;;8.40;7.65;;;;;;;;;;2051172;28;20047;-60
2023/04/13 01:32:15;;;;;;;11.77;9.07;;;;;;;;;;2052939;28;20030;-61
2023/04/13 01:33:34;;;;;;;9.10;8.13;;;;;;;;;;2052079;28;20030;-61
2023/04/13 01:34:53;;;;;;;10.70;7.80;;;;;;;;;;2053109;28;20026;-61
2023/04/13 01:36:13;;;;;;;9.35;8.45;;;;;;;;;;2053853;28;20034;-60
2023/04/13 01:37:32;;;;;;;8.80;7.60;;;;;;;;;;2054736;28;20956;-61
2023/04/13 01:38:51;;;;;;;9.98;7.68;;;;;;;;;;2053232;28;20026;-60
2023/04/13 01:40:12;;;;;;;9.75;7.90;;;;;;;;;;2055814;28;20031;-61
2023/04/13 01:41:31;;;;;;;8.70;7.88;;;;;;;;;;2052402;28;20062;-60
2023/04/13 01:42:51;;;;;;;7.47;6.88;;;;;;;;;;2051119;28;20027;-63
2023/04/13 01:44:10;;;;;;;9.07;7.38;;;;;;;;;;2048389;28;20094;-61
2023/04/13 01:45:36;;;;;;;7.97;7.18;;;;;;;;;;2049375;28;20039;-61
2023/04/13 01:47:00;;;;;;;6.95;6.45;;;;;;;;;;2051347;28;20067;-63
2023/04/13 01:48:38;;;;;;;7.32;6.65;;;;;;;;;;2054188;28;20038;-61
2023/04/13 01:49:59;;;;;;;7.47;6.78;;;;;;;;;;2053837;28;20038;-62
2023/04/13 01:51:21;;;;;;;7.70;6.88;;;;;;;;;;2061952;28;20034;-61
2023/04/13 01:52:41;;;;;;;7.00;6.50;;;;;;;;;;2054483;28;20030;-61
2023/04/13 01:54:12;;;;;;;8.25;6.43;;;;;;;;;;2054583;28;20107;-61
2023/04/13 01:55:32;;;;;;;6.85;6.20;;;;;;;;;;2053977;28;20042;-61
2023/04/13 01:56:51;;;;;;;6.88;6.13;;;;;;;;;;2054433;28;20027;-60
2023/04/13 01:58:12;;;;;;;6.68;6.13;;;;;;;;;;2052038;28;20023;-61
2023/04/13 01:59:31;;;;;;;6.72;6.15;;;;;;;;;;2053356;28;20035;-60
2023/04/13 02:00:50;;;;;;;7.15;6.45;;;;;;;;;;2053211;28;20032;-60
2023/04/13 02:02:08;;;;;;;6.47;5.93;;;;;;;;;;2054354;28;20512;-61
2023/04/13 02:03:29;;;;;;;7.10;6.50;;;;;;;;;;2053314;28;20487;-60
2023/04/13 02:04:48;;;;;;;7.25;6.65;;;;;;;;;;2052714;28;20035;-60
2023/04/13 02:06:07;;;;;;;6.50;6.00;;;;;;;;;;2055203;28;20393;-60
2023/04/13 02:07:26;;;;;;;7.55;5.95;;;;;;;;;;2054727;28;20711;-60
2023/04/13 02:08:45;;;;;;;6.32;5.82;;;;;;;;;;2053298;28;20030;-60
2023/04/13 02:10:05;;;;;;;8.55;5.90;;;;;;;;;;2053787;28;20387;-63
2023/04/13 02:11:24;;;;;;;6.97;6.47;;;;;;;;;;2053535;28;20117;-62
2023/04/13 02:12:43;;;;;;;6.55;6.05;;;;;;;;;;2052761;28;20109;-65
2023/04/13 02:14:02;;;;;;;6.45;5.80;;;;;;;;;;2053730;28;20536;-60
2023/04/13 02:15:21;;;;;;;7.25;6.53;;;;;;;;;;2054733;28;20079;-60
2023/04/13 02:16:40;;;;;;;6.28;5.72;;;;;;;;;;2054784;28;20047;-61
2023/04/13 02:17:59;;;;;;;8.00;5.85;;;;;;;;;;2053337;28;20027;-60
2023/04/13 02:19:20;;;;;;;6.35;5.50;;;;;;;;;;2052503;28;20476;-62
2023/04/13 02:20:43;;;;;;;7.47;6.05;;;;;;;;;;2053516;28;20039;-60
2023/04/13 02:22:02;;;;;;;;;;;;;;;;;;2054589;28;20027;-62
2023/04/13 02:23:21;;;;;;;6.43;5.82;;;;;;;;;;2053972;28;19910;-61
2023/04/13 02:24:41;;;;;;;10.30;5.90;;;;;;;;;;2054530;28;20411;-61
2023/04/13 02:26:00;;;;;;;8.82;6.15;;;;;;;;;;2053277;28;20027;-60
2023/04/13 02:27:19;;;;;;;6.22;5.63;;;;;;;;;;2054040;28;20062;-61
2023/04/13 02:28:39;;;;;;;7.22;5.72;;;;;;;;;;2055081;28;20027;-60
2023/04/13 02:29:58;;;;;;;6.25;5.65;;;;;;;;;;2053797;28;20035;-61
2023/04/13 02:31:18;;;;;;;5.82;5.32;;;;;;;;;;2056252;28;20038;-61
2023/04/13 02:32:40;;;;;;;6.47;5.88;;;;;;;;;;2053335;28;20121;-60
2023/04/13 02:34:00;;;;;;;6.85;5.50;;;;;;;;;;2054715;28;20114;-62
2023/04/13 02:35:22;;;;;;;6.45;5.95;;;;;;;;;;2055630;28;20035;-62
2023/04/13 02:36:41;;;;;;;6.20;5.65;;;;;;;;;;2053888;28;20039;-60
2023/04/13 02:38:00;;;;;;;7.43;6.03;;;;;;;;;;2053626;28;20685;-60
2023/04/13 02:39:19;;;;;;;6.28;5.68;;;;;;;;;;2053061;28;20042;-62
2023/04/13 02:40:38;;;;;;;8.38;5.60;;;;;;;;;;2050886;28;20054;-60
2023/04/13 02:41:57;;;;;;;9.70;5.68;;;;;;;;;;2055133;28;20030;-61
2023/04/13 02:43:16;;;;;;;6.03;5.57;;;;;;;;;;2055164;28;20489;-62
2023/04/13 02:44:37;;;;;;;9.02;6.10;;;;;;;;;;2052552;28;20445;-61
2023/04/13 02:45:56;;;;;;;6.10;5.50;;;;;;;;;;2050639;28;20122;-61
2023/04/13 02:47:16;;;;;;;6.40;5.50;;;;;;;;;;2054050;28;20031;-62
2023/04/13 02:48:35;;;;;;;6.60;5.70;;;;;;;;;;2054433;28;20031;-61
2023/04/13 02:49:55;;;;;;;10.10;5.50;;;;;;;;;;2054675;28;20600;-62
2023/04/13 02:51:14;;;;;;;6.07;4.85;;;;;;;;;;2052016;28;20038;-60
2023/04/13 02:52:33;;;;;;;5.50;5.00;;;;;;;;;;2053145;28;20106;-60
2023/04/13 02:53:52;;;;;;;6.13;5.60;;;;;;;;;;2055661;28;20034;-60
2023/04/13 02:55:11;;;;;;;6.22;5.50;;;;;;;;;;2054163;28;20131;-61
2023/04/13 02:56:31;;;;;;;6.10;5.60;;;;;;;;;;2054147;28;20780;-61
2023/04/13 02:57:50;;;;;;;5.38;4.88;;;;;;;;;;2054045;28;20035;-62
2023/04/13 02:59:09;;;;;;;5.60;5.10;;;;;;;;;;2053554;28;20026;-61
2023/04/13 03:00:28;;;;;;;6.20;5.60;;;;;;;;;;2052086;28;20040;-62
2023/04/13 03:01:47;;;;;;;5.25;4.75;;;;;;;;;;2054414;28;20039;-61
2023/04/13 03:03:07;;;;;;;6.18;5.57;;;;;;;;;;2050910;28;20070;-61
2023/04/13 03:04:26;;;;;;;5.53;4.90;;;;;;;;;;2057104;28;20031;-61
2023/04/13 03:05:45;;;;;;;6.63;5.78;;;;;;;;;;2055396;28;20031;-61
2023/04/13 03:07:08;;;;;;;6.07;4.70;;;;;;;;;;2052259;28;20039;-61
2023/04/13 03:08:27;;;;;;;5.38;4.75;;;;;;;;;;2054251;28;20062;-60
2023/04/13 03:09:47;;;;;;;5.90;5.30;;;;;;;;;;2057651;28;20046;-62
2023/04/13 03:11:08;;;;;;;8.25;5.78;;;;;;;;;;2054676;28;20031;-60
2023/04/13 03:12:27;;;;;;;4.95;4.65;;;;;;;;;;2051127;28;20065;-62
2023/04/13 03:13:46;;;;;;;5.90;5.40;;;;;;;;;;2054562;28;20054;-62
2023/04/13 03:15:09;;;;;;;5.57;5.07;;;;;;;;;;2051725;28;20967;-62
2023/04/13 03:16:28;;;;;;;6.95;5.10;;;;;;;;;;2051750;28;20026;-62
2023/04/13 03:17:47;;;;;;;5.05;4.55;;;;;;;;;;2055136;28;20425;-61
2023/04/13 03:19:06;;;;;;;5.25;4.22;;;;;;;;;;2053787;28;20022;-60
2023/04/13 03:20:27;;;;;;;4.85;4.50;;;;;;;;;;2054433;28;20027;-61
2023/04/13 03:21:47;;;;;;;7.00;5.63;;;;;;;;;;2052420;28;20039;-60
2023/04/13 03:23:06;;;;;;;7.13;5.57;;;;;;;;;;2054288;28;20117;-61
2023/04/13 03:24:28;;;;;;;5.28;4.90;;;;;;;;;;2052415;28;20027;-60
2023/04/13 03:25:47;;;;;;;5.53;4.95;;;;;;;;;;2054073;28;20031;-60
2023/04/13 03:27:06;;;;;;;5.05;4.63;;;;;;;;;;2053601;28;20035;-61
2023/04/13 03:28:25;;;;;;;5.43;4.90;;;;;;;;;;2054302;28;20115;-60
2023/04/13 03:29:44;;;;;;;5.55;5.05;;;;;;;;;;2054777;28;20027;-61
2023/04/13 03:31:03;;;;;;;5.38;4.82;;;;;;;;;;2054477;28;20393;-61
2023/04/13 03:32:22;;;;;;;5.63;4.47;;;;;;;;;;2054744;28;20034;-61
2023/04/13 03:33:41;;;;;;;5.55;5.07;;;;;;;;;;2056007;28;20031;-61
2023/04/13 03:35:00;;;;;;;5.32;4.82;;;;;;;;;;2054601;28;20399;-60
2023/04/13 03:36:19;;;;;;;5.00;4.63;;;;;;;;;;2051848;28;20035;-62
2023/04/13 03:37:43;;;;;;;5.57;4.82;;;;;;;;;;2054025;28;20050;-60
2023/04/13 03:39:04;;;;;;;6.53;4.95;;;;;;;;;;2050695;28;20050;-60
2023/04/13 03:40:22;;;;;;;6.60;5.18;;;;;;;;;;2051952;28;20224;-61
2023/04/13 03:41:41;;;;;;;6.40;5.00;;;;;;;;;;2052898;28;20027;-61
2023/04/13 03:43:00;;;;;;;5.47;5.07;;;;;;;;;;2050581;28;20415;-60
2023/04/13 03:44:19;;;;;;;5.78;4.97;;;;;;;;;;2054616;28;20027;-61
2023/04/13 03:45:38;;;;;;;5.43;4.93;;;;;;;;;;2051646;28;20027;-62
2023/04/13 03:46:57;;;;;;;6.03;4.80;;;;;;;;;;2054798;28;20504;-61
2023/04/13 03:48:16;;;;;;;5.47;4.97;;;;;;;;;;2054157;28;20039;-61
2023/04/13 03:49:35;;;;;;;5.18;4.70;;;;;;;;;;2055362;28;20114;-61
2023/04/13 03:50:55;;;;;;;4.90;4.50;;;;;;;;;;2055593;28;20046;-60
2023/04/13 03:52:13;;;;;;;5.13;4.72;;;;;;;;;;2053242;28;20054;-63
2023/04/13 03:53:36;;;;;;;5.30;4.82;;;;;;;;;;2052489;28;20038;-60
2023/04/13 03:54:55;;;;;;;6.07;4.93;;;;;;;;;;2050256;28;20035;-63
2023/04/13 03:56:14;;;;;;;7.07;5.47;;;;;;;;;;2052040;28;20484;-60
2023/04/13 03:57:33;;;;;;;7.13;5.05;;;;;;;;;;2055166;28;20077;-61
2023/04/13 03:58:55;;;;;;;6.22;5.07;;;;;;;;;;2054548;28;20042;-67
2023/04/13 04:00:15;;;;;;;6.82;5.55;;;;;;;;;;2052264;28;20035;-61
2023/04/13 04:01:34;;;;;;;6.05;5.45;;;;;;;;;;2052411;28;20117;-62
2023/04/13 04:02:53;;;;;;;5.40;4.90;;;;;;;;;;2054526;28;20062;-61
2023/04/13 04:04:12;;;;;;;6.13;5.53;;;;;;;;;;2054623;28;20023;-63
2023/04/13 04:05:31;;;;;;;6.13;5.63;;;;;;;;;;2054783;28;20034;-60
2023/04/13 04:06:50;;;;;;;7.00;5.57;;;;;;;;;;2053792;28;20027;-60
2023/04/13 04:08:09;;;;;;;5.97;5.47;;;;;;;;;;2055402;28;20169;-60
2023/04/13 04:09:28;;;;;;;6.10;5.47;;;;;;;;;;2053848;28;20038;-61
2023/04/13 04:10:47;;;;;;;9.10;6.05;;;;;;;;;;2052375;28;20031;-62
2023/04/13 04:12:06;;;;;;;7.22;5.60;;;;;;;;;;2055522;28;20117;-60
2023/04/13 04:13:25;;;;;;;7.05;5.72;;;;;;;;;;2053799;28;20070;-60
2023/04/13 04:14:44;;;;;;;6.15;5.63;;;;;;;;;;2053618;28;20440;-60
2023/04/13 04:16:05;;;;;;;7.05;6.05;;;;;;;;;;2054428;28;20568;-61
2023/04/13 04:17:24;;;;;;;6.50;5.65;;;;;;;;;;2055199;28;20035;-60
2023/04/13 04:18:44;;;;;;;5.63;5.15;;;;;;;;;;2053380;28;20043;-61
2023/04/13 04:20:05;;;;;;;6.07;5.50;;;;;;;;;;2054433;28;20034;-60
2023/04/13 04:21:32;;;;;;;6.18;5.47;;;;;;;;;;2055835;28;20019;-61
2023/04/13 04:22:52;;;;;;;7.28;5.72;;;;;;;;;;2054773;28;20109;-60
2023/04/13 04:24:19;;;;;;;6.53;5.80;;;;;;;;;;2056175;28;20030;-62
2023/04/13 04:25:39;;;;;;;5.88;5.30;;;;;;;;;;2054642;28;20062;-61
2023/04/13 04:26:59;;;;;;;8.90;5.60;;;;;;;;;;2053013;28;20035;-61
2023/04/13 04:28:18;;;;;;;5.90;5.40;;;;;;;;;;2053741;28;20456;-60
2023/04/13 04:29:37;;;;;;;6.20;5.60;;;;;;;;;;2055019;28;20504;-61
2023/04/13 04:31:00;;;;;;;6.72;5.32;;;;;;;;;;2049977;28;20034;-60
2023/04/13 04:32:22;;;;;;;9.45;5.93;;;;;;;;;;2052484;28;20109;-61
2023/04/13 04:33:41;;;;;;;7.88;5.65;;;;;;;;;;2055648;28;20066;-60
2023/04/13 04:35:02;;;;;;;8.73;6.13;;;;;;;;;;2052933;28;20027;-61
2023/04/13 04:36:23;;;;;;;6.80;5.63;;;;;;;;;;2053780;28;20392;-60
2023/04/13 04:37:41;;;;;;;7.78;6.00;;;;;;;;;;2055001;28;20484;-60
2023/04/13 04:39:03;;;;;;;6.00;5.60;;;;;;;;;;2049823;28;20113;-60
2023/04/13 04:40:22;;;;;;;8.68;6.03;;;;;;;;;;2053275;28;20019;-61
2023/04/13 04:41:43;;;;;;;6.15;5.30;;;;;;;;;;2054362;28;20019;-61
2023/04/13 04:43:03;;;;;;;10.25;5.97;;;;;;;;;;2052997;28;20420;-61
2023/04/13 04:44:29;;;;;;;9.10;5.30;;;;;;;;;;2050964;28;20035;-61
2023/04/13 04:45:50;;;;;;;7.43;5.60;;;;;;;;;;2055495;28;20495;-60
2023/04/13 04:47:15;;;;;;;6.60;6.00;;;;;;;;;;2053988;28;20034;-61
2023/04/13 04:48:36;;;;;;;6.05;5.50;;;;;;;;;;2054976;28;20031;-61
2023/04/13 04:49:56;;;;;;;6.10;5.40;;;;;;;;;;2054575;28;20062;-61
2023/04/13 04:51:15;;;;;;;6.03;5.53;;;;;;;;;;2050951;28;20023;-61
2023/04/13 04:52:34;;;;;;;9.30;5.90;;;;;;;;;;2052952;28;20062;-61
2023/04/13 04:53:53;;;;;;;10.90;5.60;;;;;;;;;;2053713;28;20420;-60
2023/04/13 04:55:12;;;;;;;5.95;5.05;;;;;;;;;;2051068;28;20031;-61
2023/04/13 04:56:31;;;;;;;10.05;5.15;;;;;;;;;;2052976;28;20031;-61
2023/04/13 04:57:50;;;;;;;9.15;5.80;;;;;;;;;;2053028;28;20030;-63
2023/04/13 04:59:09;;;;;;;10.32;5.45;;;;;;;;;;2054682;28;20023;-63
2023/04/13 05:00:29;;;;;;;6.43;5.68;;;;;;;;;;2054525;28;20023;-63
2023/04/13 05:01:48;;;;;;;6.88;5.30;;;;;;;;;;2053918;28;20022;-62
2023/04/13 05:03:07;;;;;;;6.43;5.50;;;;;;;;;;2054083;28;20284;-62
2023/04/13 05:04:26;;;;;;;7.65;5.22;;;;;;;;;;2053641;28;20357;-62
2023/04/13 05:05:45;;;;;;;8.13;5.15;;;;;;;;;;2055355;28;20477;-62
2023/04/13 05:07:04;;;;;;;8.77;5.50;;;;;;;;;;2051594;28;20027;-62
2023/04/13 05:08:23;;;;;;;6.45;5.47;;;;;;;;;;2054683;28;20043;-61
2023/04/13 05:09:42;;;;;;;6.65;5.43;;;;;;;;;;2053234;28;20038;-62
2023/04/13 05:11:04;;;;;;;9.27;5.75;;;;;;;;;;2051852;28;20026;-62
2023/04/13 05:12:23;;;;;;;9.07;5.60;;;;;;;;;;2053330;28;20034;-62
2023/04/13 05:13:42;;;;;;;5.70;5.13;;;;;;;;;;2053218;28;20564;-62
2023/04/13 05:15:01;;;;;;;9.48;5.60;;;;;;;;;;2053479;28;20035;-61
2023/04/13 05:16:20;;;;;;;7.38;5.25;;;;;;;;;;2049959;28;20046;-63
2023/04/13 05:17:40;;;;;;;8.80;5.30;;;;;;;;;;2054854;28;20047;-61
2023/04/13 05:18:59;;;;;;;7.07;5.97;;;;;;;;;;2053583;28;20026;-64
2023/04/13 05:20:18;;;;;;;9.32;5.43;;;;;;;;;;2053353;28;20042;-61
2023/04/13 05:21:37;;;;;;;11.20;5.40;;;;;;;;;;2052296;28;20453;-61
2023/04/13 05:22:57;;;;;;;5.88;5.03;;;;;;;;;;2054544;28;20023;-62
2023/04/13 05:24:16;;;;;;;9.48;5.80;;;;;;;;;;2054716;28;20543;-63
2023/04/13 05:25:35;;;;;;;8.30;5.47;;;;;;;;;;2053673;28;20030;-61
2023/04/13 05:26:55;;;;;;;6.97;4.72;;;;;;;;;;2054615;28;20026;-62
2023/04/13 05:28:14;;;;;;;6.35;4.80;;;;;;;;;;2053733;28;20031;-62
2023/04/13 05:29:34;;;;;;;5.43;4.93;;;;;;;;;;2051079;28;20031;-61
2023/04/13 05:30:53;;;;;;;9.48;5.60;;;;;;;;;;2053427;28;20109;-62
2023/04/13 05:32:11;;;;;;;7.72;6.03;;;;;;;;;;2051617;28;20030;-62
2023/04/13 05:33:31;;;;;;;10.68;6.07;;;;;;;;;;2052456;28;20035;-62
2023/04/13 05:34:50;;;;;;;7.85;5.10;;;;;;;;;;2052768;28;20043;-63
2023/04/13 05:36:09;;;;;;;8.23;4.80;;;;;;;;;;2048797;28;20043;-63
2023/04/13 05:37:28;;;;;;;10.05;5.15;;;;;;;;;;2051201;28;20042;-62
2023/04/13 05:38:47;;;;;;;9.88;6.00;;;;;;;;;;2053397;28;20485;-63
2023/04/13 05:40:12;;;;;;;19.67;11.85;;;;;;;;;;2053295;28;20046;-62
2023/04/13 05:41:32;;;;;;;11.77;6.55;;;;;;;;;;2054345;28;20062;-62
2023/04/13 05:42:51;;;;;;;7.90;5.63;;;;;;;;;;2048548;28;20027;-62
2023/04/13 05:44:10;;;;;;;14.25;5.95;;;;;;;;;;2050899;28;20432;-62
2023/04/13 05:45:29;;;;;;;12.50;6.03;;;;;;;;;;2050790;28;20050;-63
2023/04/13 05:46:49;;;;;;;7.88;5.68;;;;;;;;;;2047983;28;20476;-62
2023/04/13 05:48:08;;;;;;;6.07;5.10;;;;;;;;;;2053372;28;20054;-63
2023/04/13 05:49:27;;;;;;;9.52;5.20;;;;;;;;;;2052000;28;20026;-67
2023/04/13 05:50:46;;;;;;;6.38;5.15;;;;;;;;;;2051954;28;20027;-64
2023/04/13 05:52:06;;;;;;;9.25;5.78;;;;;;;;;;2055144;28;20026;-63
2023/04/13 05:53:25;;;;;;;9.70;6.20;;;;;;;;;;2052817;28;22204;-62
2023/04/13 05:54:45;;;;;;;9.98;5.70;;;;;;;;;;2053919;28;20027;-62
2023/04/13 05:56:05;;;;;;;10.20;5.63;;;;;;;;;;2054683;28;20531;-62
2023/04/13 05:57:24;;;;;;;10.48;5.80;;;;;;;;;;2049073;28;20508;-61
2023/04/13 05:58:43;;;;;;;14.07;5.72;;;;;;;;;;2053961;28;20062;-61
2023/04/13 06:00:06;;;;;;;13.00;5.78;;;;;;;;;;2052610;28;20031;-62
2023/04/13 06:01:28;;;;;;;9.48;5.68;;;;;;;;;;2054051;28;20027;-61
2023/04/13 06:02:47;;;;;;;9.45;5.07;;;;;;;;;;2056311;28;20039;-61
2023/04/13 06:04:08;;;;;;;15.52;5.72;;;;;;;;;;2056205;28;20027;-63
2023/04/13 06:05:28;;;;;;;11.73;5.50;;;;;;;;;;2053366;28;20484;-62
2023/04/13 06:06:47;;;;;;;11.65;5.75;;;;;;;;;;2054146;28;20154;-62
2023/04/13 06:08:09;;;;;;;13.45;5.95;;;;;;;;;;2055198;28;20034;-62
2023/04/13 06:09:28;;;;;;;8.90;5.22;;;;;;;;;;2054559;28;20031;-63
2023/04/13 06:10:47;;;;;;;11.70;6.20;;;;;;;;;;2054950;28;20031;-62
2023/04/13 06:12:06;;;;;;;21.35;6.72;;;;;;;;;;2053725;28;20039;-62
2023/04/13 06:13:25;;;;;;;13.00;5.38;;;;;;;;;;2055260;28;20031;-62
2023/04/13 06:14:44;;;;;;;8.63;5.45;;;;;;;;;;2055143;28;20516;-62
2023/04/13 06:16:04;;;;;;;13.75;5.65;;;;;;;;;;2052516;28;20448;-62
2023/04/13 06:17:23;;;;;;;11.57;6.15;;;;;;;;;;2055383;28;20114;-62
2023/04/13 06:18:42;;;;;;;11.13;5.63;;;;;;;;;;2056284;28;20038;-63
2023/04/13 06:20:01;;;;;;;11.30;5.85;;;;;;;;;;2055713;28;20388;-62
2023/04/13 06:21:20;;;;;;;9.75;5.72;;;;;;;;;;2057002;28;20078;-62
2023/04/13 06:22:39;;;;;;;14.82;5.82;;;;;;;;;;2055713;28;20031;-61
2023/04/13 06:23:58;;;;;;;11.43;5.78;;;;;;;;;;2055444;28;20027;-63
2023/04/13 06:25:17;;;;;;;12.82;6.43;;;;;;;;;;2056180;28;20027;-63
2023/04/13 06:26:36;;;;;;;11.80;5.90;;;;;;;;;;2054474;28;20031;-62
2023/04/13 06:27:55;;;;;;;10.65;5.93;;;;;;;;;;2057201;28;20031;-62
2023/04/13 06:29:14;;;;;;;10.32;5.97;;;;;;;;;;2054341;28;20062;-63
2023/04/13 06:30:33;;;;;;;10.65;5.90;;;;;;;;;;2055156;28;20054;-62
2023/04/13 06:31:53;;;;;;;12.15;5.85;;;;;;;;;;2055936;28;20023;-63
2023/04/13 06:33:13;;;;;;;14.50;6.72;;;;;;;;;;2056631;28;20429;-62
2023/04/13 06:34:33;;;;;;;7.78;5.63;;;;;;;;;;2053381;28;20440;-62
2023/04/13 06:35:52;;;;;;;7.80;5.40;;;;;;;;;;2055235;28;20038;-62
2023/04/13 06:37:10;;;;;;;10.27;6.45;;;;;;;;;;2056403;28;20027;-62
2023/04/13 06:38:30;;;;;;;10.35;6.30;;;;;;;;;;2056322;28;20034;-62
2023/04/13 06:39:50;;;;;;;8.80;5.47;;;;;;;;;;2057083;28;20485;-66
2023/04/13 06:41:09;;;;;;;11.98;6.70;;;;;;;;;;2056807;28;20145;-62
2023/04/13 06:42:28;;;;;;;11.93;5.93;;;;;;;;;;2055547;28;20038;-62
2023/04/13 06:43:47;;;;;;;14.77;6.20;;;;;;;;;;2055794;28;20039;-62
2023/04/13 06:45:07;;;;;;;11.75;6.00;;;;;;;;;;2056395;28;20031;-64
2023/04/13 06:46:26;;;;;;;16.55;5.75;;;;;;;;;;2055505;28;20055;-62
2023/04/13 06:47:45;;;;;;;10.27;5.60;;;;;;;;;;2054357;28;20030;-62
2023/04/13 06:49:04;;;;;;;11.95;5.75;;;;;;;;;;2054146;28;20097;-63
2023/04/13 06:50:23;;;;;;;10.93;5.88;;;;;;;;;;2054518;28;20113;-62
2023/04/13 06:51:42;;;;;;;10.35;5.80;;;;;;;;;;2055306;28;20597;-62
2023/04/13 06:53:02;;;;;;;10.48;6.03;;;;;;;;;;2054318;28;20031;-62
2023/04/13 06:54:20;;;;;;;12.95;5.68;;;;;;;;;;2053382;28;20026;-62
2023/04/13 06:55:39;;;;;;;8.32;5.80;;;;;;;;;;2054005;28;20031;-63
2023/04/13 06:57:00;;;;;;;11.38;5.68;;;;;;;;;;2053386;28;20134;-62
2023/04/13 06:58:20;;;;;;;13.00;5.95;;;;;;;;;;2055553;28;20119;-62
2023/04/13 06:59:40;;;;;;;17.95;6.38;;;;;;;;;;2055135;28;20488;-66
2023/04/13 07:00:59;;;;;;;13.10;6.32;;;;;;;;;;2053401;28;20385;-62
2023/04/13 07:02:18;;;;;;;13.75;5.93;;;;;;;;;;2053357;28;20042;-62
2023/04/13 07:03:37;;;;;;;11.68;6.72;;;;;;;;;;2054094;28;20063;-62
2023/04/13 07:04:57;;;;;;;13.82;5.85;;;;;;;;;;2053958;28;20027;-63
2023/04/13 07:06:15;;;;;;;9.98;5.53;;;;;;;;;;2055322;28;20027;-62
2023/04/13 07:07:34;;;;;;;13.30;5.43;;;;;;;;;;2054055;28;20400;-62
2023/04/13 07:08:53;;;;;;;11.13;6.13;;;;;;;;;;2055181;28;20074;-62
2023/04/13 07:10:12;;;;;;;14.27;6.50;;;;;;;;;;2053846;28;20030;-62
2023/04/13 07:11:31;;;;;;;10.50;5.80;;;;;;;;;;2054787;28;20043;-62
2023/04/13 07:12:50;;;;;;;17.50;6.13;;;;;;;;;;2055255;28;20122;-63
2023/04/13 07:14:09;;;;;;;16.30;6.25;;;;;;;;;;2053997;28;20039;-62
2023/04/13 07:15:28;;;;;;;10.98;5.75;;;;;;;;;;2054221;28;21136;-62
2023/04/13 07:16:47;;;;;;;15.95;6.25;;;;;;;;;;2054833;28;21281;-63
2023/04/13 07:18:06;;;;;;;16.98;5.90;;;;;;;;;;2053062;28;20113;-63
2023/04/13 07:19:26;;;;;;;11.07;6.25;;;;;;;;;;2055024;28;20485;-62
2023/04/13 07:20:46;;;;;;;11.63;5.88;;;;;;;;;;2053692;28;20550;-62
2023/04/13 07:22:05;;;;;;;9.68;6.57;;;;;;;;;;2054877;28;20031;-63
2023/04/13 07:23:24;;;;;;;13.30;5.90;;;;;;;;;;2053975;28;20105;-62
2023/04/13 07:24:43;;;;;;;15.60;5.25;;;;;;;;;;2054068;28;20039;-64
2023/04/13 07:26:02;;;;;;;9.70;5.75;;;;;;;;;;2057091;28;20477;-62
2023/04/13 07:27:21;;;;;;;18.45;6.68;;;;;;;;;;2054856;28;20034;-62
2023/04/13 07:28:40;;;;;;;11.85;5.45;;;;;;;;;;2056389;28;20031;-63
2023/04/13 07:30:00;;;;;;;51.88;9.05;;;;;;;;;;2055909;28;20528;-63
2023/04/13 07:31:20;;;;;;;18.90;7.05;;;;;;;;;;2052503;28;20113;-62
2023/04/13 07:32:39;;;;;;;12.77;5.82;;;;;;;;;;2054953;28;20046;-62
2023/04/13 07:33:58;;;;;;;14.77;5.93;;;;;;;;;;2054629;28;20030;-62
2023/04/13 07:35:17;;;;;;;8.60;5.03;;;;;;;;;;2055334;28;20038;-62
2023/04/13 07:36:36;;;;;;;14.13;5.47;;;;;;;;;;2055625;28;20038;-63
2023/04/13 07:37:55;;;;;;;11.40;5.20;;;;;;;;;;2054818;28;20031;-62
2023/04/13 07:39:14;;;;;;;16.10;5.35;;;;;;;;;;2053921;28;20054;-63
2023/04/13 07:40:34;;;;;;;9.50;5.50;;;;;;;;;;2055019;28;20027;-62
2023/04/13 07:41:53;;;;;;;12.48;5.47;;;;;;;;;;2055002;28;20387;-62
2023/04/13 07:43:12;;;;;;;11.02;5.60;;;;;;;;;;2055493;28;20110;-62
2023/04/13 07:44:32;;;;;;;9.48;5.30;;;;;;;;;;2055903;28;20026;-62
2023/04/13 07:45:51;;;;;;;10.10;5.22;;;;;;;;;;2054843;28;20023;-62
2023/04/13 07:47:11;;;;;;;15.68;5.43;;;;;;;;;;2054630;28;20344;-62
2023/04/13 07:48:30;;;;;;;13.52;5.28;;;;;;;;;;2053933;28;20109;-63
2023/04/13 07:49:50;;;;;;;10.23;6.03;;;;;;;;;;2055498;28;20062;-63
2023/04/13 07:51:16;;;;;;;12.98;5.30;;;;;;;;;;2053480;28;20097;-62
2023/04/13 07:52:35;;;;;;;13.45;5.90;;;;;;;;;;2052950;28;20034;-62
2023/04/13 07:53:54;;;;;;;14.95;5.45;;;;;;;;;;2053475;28;20035;-63
2023/04/13 07:55:14;;;;;;;21.58;5.65;;;;;;;;;;2055837;28;20117;-62
2023/04/13 07:56:34;;;;;;;18.52;5.60;;;;;;;;;;2055706;28;20038;-62